createdAt,value
2018-01-06T00:01:02.220Z,100828.82
2018-01-06T00:04:04.343Z,100834.28
2018-01-06T00:07:06.198Z,100832.14
2018-01-06T00:10:08.088Z,100834.39
2018-01-06T00:13:09.967Z,100848.55
2018-01-06T00:16:11.823Z,100849.67
2018-01-06T00:19:13.692Z,100846.17
2018-01-06T00:22:15.544Z,100840.47
2018-01-06T00:25:17.436Z,100848.41
2018-01-06T00:28:19.325Z,100847.05
2018-01-06T00:31:21.176Z,100849.29
2018-01-06T00:34:23.069Z,100840.08
2018-01-06T00:37:24.958Z,100833.79
2018-01-06T00:40:26.836Z,100828.59
2018-01-06T00:43:28.686Z,100830.05
2018-01-06T00:46:30.576Z,100832.78
2018-01-06T00:49:32.472Z,100839.89
2018-01-06T00:52:34.343Z,100837.98
2018-01-06T00:55:36.207Z,100837.50
2018-01-06T00:58:38.092Z,100836.14
2018-01-06T01:01:39.959Z,100841.88
2018-01-06T01:04:41.851Z,100839.74
2018-01-06T01:07:43.731Z,100844.95
2018-01-06T01:10:45.626Z,100847.68
2018-01-06T01:13:47.512Z,100852.64
2018-01-06T01:16:49.390Z,100860.58
2018-01-06T01:19:51.272Z,100858.39
2018-01-06T01:22:53.123Z,100852.93
2018-01-06T01:25:54.999Z,100855.41
2018-01-06T01:28:56.916Z,100862.24
2018-01-06T01:31:58.788Z,100859.27
2018-01-06T01:35:00.681Z,100854.15
2018-01-06T01:38:02.535Z,100860.96
2018-01-06T01:41:04.419Z,100855.81
2018-01-06T01:44:06.283Z,100858.00
2018-01-06T01:47:08.162Z,100868.08
2018-01-06T01:50:10.004Z,100862.96
2018-01-06T01:53:11.906Z,100865.20
2018-01-06T01:56:13.788Z,100862.76
2018-01-06T01:59:15.896Z,100860.28
2018-01-06T02:02:17.764Z,100861.16
2018-01-06T02:05:19.699Z,100865.83
2018-01-06T02:08:21.547Z,100861.74
2018-01-06T02:11:23.714Z,100860.13
2018-01-06T02:14:25.551Z,100865.58
2018-01-06T02:17:27.428Z,100861.79
2018-01-06T02:20:29.272Z,100853.61
2018-01-06T02:23:31.151Z,100858.86
2018-01-06T02:26:33.006Z,100851.80
2018-01-06T02:29:35.115Z,100842.79
2018-01-06T02:32:36.966Z,100848.01
2018-01-06T02:35:38.851Z,100846.64
2018-01-06T02:38:40.751Z,100842.02
2018-01-06T02:41:42.612Z,100834.12
2018-01-06T02:44:44.484Z,100836.07
2018-01-06T02:47:46.392Z,100831.74
2018-01-06T02:50:48.255Z,100828.18
2018-01-06T02:53:50.131Z,100824.97
2018-01-06T02:56:51.985Z,100826.92
2018-01-06T02:59:53.865Z,100829.06
2018-01-06T03:02:55.735Z,100836.21
2018-01-06T03:05:57.628Z,100837.33
2018-01-06T03:08:59.489Z,100836.51
2018-01-06T03:12:01.384Z,100829.93
2018-01-06T03:15:03.239Z,100828.91
2018-01-06T03:18:05.115Z,100835.48
2018-01-06T03:21:06.975Z,100821.85
2018-01-06T03:24:08.864Z,100817.52
2018-01-06T03:27:10.800Z,100820.78
2018-01-06T03:30:12.592Z,100821.91
2018-01-06T03:33:14.471Z,100820.54
2018-01-06T03:36:16.331Z,100830.66
2018-01-06T03:39:18.214Z,100837.22
2018-01-06T03:42:20.070Z,100830.42
2018-01-06T03:45:21.955Z,100827.20
2018-01-06T03:48:23.995Z,100822.53
2018-01-06T03:51:25.851Z,100820.91
2018-01-06T03:54:27.736Z,100818.69
2018-01-06T03:57:29.595Z,100816.05
2018-01-06T04:00:31.505Z,100829.68
2018-01-06T04:03:33.384Z,100829.48
2018-01-06T04:06:35.263Z,100823.40
2018-01-06T04:09:37.129Z,100824.28
2018-01-06T04:12:39.011Z,100823.49
2018-01-06T04:15:40.877Z,100828.94
2018-01-06T04:18:42.756Z,100830.31
2018-01-06T04:21:44.702Z,100827.87
2018-01-06T04:24:46.598Z,100725.31
2018-01-06T04:27:48.459Z,100831.96
2018-01-06T04:30:50.339Z,100836.87
2018-01-06T04:33:52.223Z,100832.02
2018-01-06T04:36:54.096Z,100826.58
2018-01-06T04:39:55.969Z,100839.95
2018-01-06T04:42:57.833Z,100845.15
2018-01-06T04:45:59.716Z,100853.33
2018-01-06T04:49:01.586Z,100854.70
2018-01-06T04:52:03.499Z,100860.23
2018-01-06T04:55:05.359Z,100858.20
2018-01-06T04:58:07.419Z,100862.71
2018-01-06T05:01:09.506Z,100852.93
2018-01-06T05:04:11.363Z,100849.08
2018-01-06T05:07:13.539Z,100846.03
2018-01-06T05:10:15.408Z,100850.90
2018-01-06T05:13:17.290Z,100855.72
2018-01-06T05:16:19.138Z,100853.22
2018-01-06T05:19:21.039Z,100854.21
2018-01-06T05:22:22.915Z,100853.25
2018-01-06T05:25:24.979Z,100849.60
2018-01-06T05:28:26.864Z,100841.57
2018-01-06T05:31:28.752Z,100839.82
2018-01-06T05:34:30.627Z,100841.58
2018-01-06T05:37:32.507Z,100845.29
2018-01-06T05:40:34.371Z,100838.33
2018-01-06T05:43:36.261Z,100839.89
2018-01-06T05:46:38.118Z,100836.76
2018-01-06T05:49:39.991Z,100841.01
2018-01-06T05:52:41.840Z,100838.23
2018-01-06T05:55:43.738Z,100843.30
2018-01-06T05:58:45.635Z,100840.71
2018-01-06T06:01:47.524Z,100845.53
2018-01-06T06:04:49.387Z,100842.71
2018-01-06T06:07:51.271Z,100845.63
2018-01-06T06:10:53.179Z,100836.80
2018-01-06T06:13:55.041Z,100845.48
2018-01-06T06:16:56.920Z,100848.69
2018-01-06T06:19:58.767Z,100842.36
2018-01-06T06:23:00.647Z,100844.74
2018-01-06T06:26:02.503Z,100845.81
2018-01-06T06:29:04.397Z,100847.08
2018-01-06T06:32:06.279Z,100846.20
2018-01-06T06:35:08.136Z,100850.00
2018-01-06T06:38:10.292Z,100863.00
2018-01-06T06:41:12.155Z,100853.70
2018-01-06T06:44:14.043Z,100846.30
2018-01-06T06:47:15.898Z,100865.06
2018-01-06T06:50:17.771Z,100865.30
2018-01-06T06:53:19.642Z,100865.54
2018-01-06T06:56:21.524Z,100859.78
2018-01-06T06:59:23.391Z,100859.72
2018-01-06T07:02:25.426Z,100864.87
2018-01-06T07:05:27.325Z,100863.75
2018-01-06T07:08:29.223Z,100864.24
2018-01-06T07:11:31.094Z,100861.75
2018-01-06T07:14:32.987Z,100852.45
2018-01-06T07:17:34.859Z,100853.22
2018-01-06T07:20:36.719Z,100857.56
2018-01-06T07:23:38.616Z,100866.57
2018-01-06T07:26:40.476Z,100867.35
2018-01-06T07:29:42.365Z,100872.03
2018-01-06T07:32:44.404Z,100879.63
2018-01-06T07:35:46.286Z,100881.00
2018-01-06T07:38:48.174Z,100884.21
2018-01-06T07:41:50.024Z,100881.49
2018-01-06T07:44:51.920Z,100894.01
2018-01-06T07:47:53.775Z,100905.17
2018-01-06T07:50:55.662Z,100905.11
2018-01-06T07:53:57.528Z,100912.18
2018-01-06T07:56:59.412Z,100910.48
2018-01-06T08:00:01.348Z,100919.15
2018-01-06T08:03:03.244Z,100920.46
2018-01-06T08:06:05.099Z,100918.76
2018-01-06T08:09:06.967Z,100917.05
2018-01-06T08:12:08.831Z,100917.29
2018-01-06T08:15:10.712Z,100923.82
2018-01-06T08:18:12.620Z,100930.31
2018-01-06T08:21:14.577Z,100932.50
2018-01-06T08:24:16.531Z,100943.09
2018-01-06T08:27:18.440Z,100947.42
2018-01-06T08:30:20.333Z,100948.09
2018-01-06T08:33:22.244Z,100962.13
2018-01-06T08:36:24.149Z,100916.28
2018-01-06T08:39:26.035Z,100960.52
2018-01-06T08:42:27.957Z,100963.16
2018-01-06T08:45:29.843Z,100956.27
2018-01-06T08:48:31.739Z,100955.15
2018-01-06T08:51:33.603Z,100960.12
2018-01-06T08:54:35.635Z,100966.47
2018-01-06T08:57:37.503Z,100971.11
2018-01-06T09:00:39.400Z,100970.87
2018-01-06T09:03:41.283Z,100972.24
2018-01-06T09:06:43.231Z,100977.70
2018-01-06T09:09:45.171Z,100977.16
2018-01-06T09:12:47.103Z,100983.40
2018-01-06T09:15:48.987Z,100985.35
2018-01-06T09:18:50.909Z,100999.55
2018-01-06T09:21:52.779Z,100996.04
2018-01-06T09:24:54.739Z,101008.62
2018-01-06T09:27:56.590Z,101007.50
2018-01-06T09:30:58.709Z,101013.30
2018-01-06T09:34:00.569Z,101011.94
2018-01-06T09:37:02.449Z,101012.48
2018-01-06T09:40:04.315Z,101013.55
2018-01-06T09:43:06.199Z,101013.69
2018-01-06T09:46:08.115Z,101017.73
2018-01-06T09:49:10.007Z,101011.59
2018-01-06T09:52:11.879Z,101009.09
2018-01-06T09:55:13.763Z,101008.41
2018-01-06T09:58:15.626Z,101009.03
2018-01-06T10:01:17.700Z,101006.24
2018-01-06T10:04:20.004Z,101012.33
2018-01-06T10:07:21.971Z,101008.47
2018-01-06T10:10:23.886Z,101005.04
2018-01-06T10:13:25.868Z,101007.83
2018-01-06T10:16:27.776Z,101008.33
2018-01-06T10:19:29.760Z,101013.61
2018-01-06T10:22:31.691Z,101017.95
2018-01-06T10:25:33.652Z,101015.97
2018-01-06T10:28:35.575Z,101016.63
2018-01-06T10:31:37.539Z,101020.63
2018-01-06T10:34:39.427Z,101016.28
2018-01-06T10:37:41.380Z,101006.81
2018-01-06T10:40:43.335Z,101004.09
2018-01-06T10:43:45.455Z,101003.26
2018-01-06T10:46:47.418Z,101000.15
2018-01-06T10:49:49.640Z,101004.71
2018-01-06T10:52:51.532Z,100998.87
2018-01-06T10:55:53.505Z,100998.94
2018-01-06T10:58:55.364Z,100991.38
2018-01-06T11:02:01.499Z,100995.48
2018-01-06T11:05:03.472Z,100987.82
2018-01-06T11:08:05.435Z,100984.60
2018-01-06T11:11:08.187Z,100980.27
2018-01-06T11:14:10.139Z,100981.64
2018-01-06T11:17:12.707Z,100976.02
2018-01-06T11:20:14.656Z,100977.70
2018-01-06T11:23:16.586Z,100979.94
2018-01-06T11:26:18.494Z,100979.94
2018-01-06T11:29:20.484Z,100970.72
2018-01-06T11:32:22.451Z,100969.12
2018-01-06T11:35:24.428Z,100965.02
2018-01-06T11:38:26.699Z,100961.78
2018-01-06T11:41:28.811Z,100963.89
2018-01-06T11:44:30.704Z,100954.38
2018-01-06T11:47:32.619Z,100948.92
2018-01-06T11:50:34.600Z,100942.92
2018-01-06T11:53:36.527Z,100932.52
2018-01-06T11:56:38.479Z,100935.50
2018-01-06T11:59:40.423Z,100930.03
2018-01-06T12:02:42.388Z,100933.00
2018-01-06T12:05:44.600Z,100948.86
2018-01-06T12:08:46.494Z,100950.77
2018-01-06T12:11:48.615Z,100954.08
2018-01-06T12:14:50.580Z,100949.74
2018-01-06T12:17:52.506Z,100950.87
2018-01-06T12:20:54.625Z,100954.38
2018-01-06T12:23:56.607Z,100963.16
2018-01-06T12:26:58.575Z,100957.70
2018-01-06T12:30:00.723Z,100954.14
2018-01-06T12:33:02.783Z,100952.78
2018-01-06T12:36:04.736Z,100939.46
2018-01-06T12:39:06.806Z,100936.72
2018-01-06T12:42:08.964Z,100945.46
2018-01-06T12:45:10.902Z,100946.59
2018-01-06T12:48:12.824Z,100942.25
2018-01-06T12:51:14.851Z,100942.25
2018-01-06T12:54:16.947Z,100944.44
2018-01-06T12:57:18.912Z,100949.26
2018-01-06T13:00:20.842Z,100949.16
2018-01-06T13:03:22.856Z,100959.79
2018-01-06T13:06:24.839Z,100960.82
2018-01-06T13:09:26.795Z,100958.32
2018-01-06T13:12:28.783Z,100958.56
2018-01-06T13:15:30.935Z,100959.62
2018-01-06T13:18:32.957Z,100956.32
2018-01-06T13:21:34.961Z,100948.11
2018-01-06T13:24:37.048Z,100943.13
2018-01-06T13:27:39.110Z,100943.72
2018-01-06T13:30:41.039Z,100950.20
2018-01-06T13:33:43.094Z,100952.16
2018-01-06T13:36:45.019Z,100954.06
2018-01-06T13:39:47.011Z,100966.60
2018-01-06T13:42:49.032Z,100970.70
2018-01-06T13:45:51.046Z,100962.84
2018-01-06T13:48:53.227Z,100976.17
2018-01-06T13:51:55.191Z,100983.58
2018-01-06T13:54:57.107Z,100980.85
2018-01-06T13:57:58.992Z,100978.12
2018-01-06T14:01:00.927Z,100982.76
2018-01-06T14:04:03.054Z,100979.78
2018-01-06T14:07:05.011Z,100991.78
2018-01-06T14:10:06.908Z,100991.54
2018-01-06T14:13:08.794Z,100994.28
2018-01-06T14:16:10.684Z,101000.76
2018-01-06T14:19:12.575Z,101005.20
2018-01-06T14:22:14.458Z,101009.30
2018-01-06T14:25:16.348Z,101015.79
2018-01-06T14:28:18.211Z,101003.49
2018-01-06T14:31:20.100Z,101002.12
2018-01-06T14:34:22.036Z,100996.85
2018-01-06T14:37:23.906Z,101000.36
2018-01-06T14:40:25.796Z,101008.02
2018-01-06T14:43:27.666Z,101014.02
2018-01-06T14:46:29.567Z,101025.45
2018-01-06T14:49:31.435Z,101017.48
2018-01-06T14:52:33.311Z,101014.14
2018-01-06T14:55:35.232Z,101013.55
2018-01-06T14:58:37.143Z,101009.16
2018-01-06T15:01:39.024Z,101008.27
2018-01-06T15:04:40.967Z,101010.91
2018-01-06T15:07:42.928Z,101022.32
2018-01-06T15:10:44.835Z,101020.41
2018-01-06T15:13:46.751Z,101018.65
2018-01-06T15:16:48.754Z,101019.43
2018-01-06T15:19:50.622Z,101025.38
2018-01-06T15:22:52.551Z,101022.89
2018-01-06T15:25:54.547Z,101023.37
2018-01-06T15:28:56.519Z,101017.25
2018-01-06T15:31:58.444Z,101018.32
2018-01-06T15:35:00.432Z,101025.78
2018-01-06T15:38:02.540Z,101025.48
2018-01-06T15:41:04.510Z,101035.19
2018-01-06T15:44:06.422Z,101035.85
2018-01-06T15:47:08.299Z,101035.51
2018-01-06T15:50:10.226Z,101037.46
2018-01-06T15:53:12.190Z,101043.71
2018-01-06T15:56:14.146Z,101046.20
2018-01-06T15:59:16.048Z,101049.04
2018-01-06T16:02:17.940Z,101060.52
2018-01-06T16:05:19.812Z,101060.86
2018-01-06T16:08:21.687Z,101064.48
2018-01-06T16:11:23.557Z,101061.50
2018-01-06T16:14:26.212Z,101072.97
2018-01-06T16:17:28.072Z,101079.57
2018-01-06T16:20:29.968Z,101079.27
2018-01-06T16:23:32.508Z,101079.27
2018-01-06T16:26:34.396Z,101075.65
2018-01-06T16:29:36.356Z,101081.67
2018-01-06T16:32:38.231Z,101075.71
2018-01-06T16:35:40.181Z,101079.67
2018-01-06T16:38:42.059Z,101080.69
2018-01-06T16:41:43.920Z,101086.41
2018-01-06T16:44:45.822Z,101085.29
2018-01-06T16:47:47.690Z,101086.89
2018-01-06T16:50:49.570Z,101094.55
2018-01-06T16:53:51.463Z,101093.67
2018-01-06T16:56:53.350Z,101103.78
2018-01-06T16:59:55.240Z,101105.09
2018-01-06T17:02:57.116Z,101105.87
2018-01-06T17:05:59.003Z,101102.84
2018-01-06T17:09:00.932Z,101101.96
2018-01-06T17:12:02.824Z,101107.67
2018-01-06T17:15:04.711Z,101109.03
2018-01-06T17:18:06.581Z,101113.38
2018-01-06T17:21:08.470Z,101121.82
2018-01-06T17:24:10.332Z,101119.57
2018-01-06T17:27:12.221Z,101123.09
2018-01-06T17:30:14.972Z,101130.66
2018-01-06T17:33:16.852Z,101130.95
2018-01-06T17:36:18.720Z,101137.55
2018-01-06T17:39:20.616Z,101144.39
2018-01-06T17:42:22.497Z,101146.82
2018-01-06T17:45:24.376Z,101145.45
2018-01-06T17:48:26.240Z,101148.73
2018-01-06T17:51:28.172Z,101147.61
2018-01-06T17:54:30.036Z,101143.50
2018-01-06T17:57:31.915Z,101140.77
2018-01-06T18:00:34.255Z,101139.40
2018-01-06T18:03:36.270Z,101132.55
2018-01-06T18:06:38.339Z,101145.94
2018-01-06T18:09:40.226Z,101146.18
2018-01-06T18:12:42.111Z,101153.02
2018-01-06T18:15:44.004Z,101162.83
2018-01-06T18:18:45.879Z,101149.85
2018-01-06T18:21:47.816Z,101153.56
2018-01-06T18:24:49.710Z,101157.36
2018-01-06T18:27:51.579Z,101159.26
2018-01-06T18:30:53.478Z,101162.48
2018-01-06T18:33:55.372Z,101154.29
2018-01-06T18:36:57.295Z,101162.48
2018-01-06T18:39:59.163Z,101164.68
2018-01-06T18:43:01.196Z,101163.37
2018-01-06T18:46:03.050Z,101171.34
2018-01-06T18:49:04.939Z,101177.64
2018-01-06T18:52:06.843Z,101184.76
2018-01-06T18:55:08.791Z,101190.57
2018-01-06T18:58:10.687Z,101193.31
2018-01-06T19:01:12.555Z,101188.13
2018-01-06T19:04:14.448Z,101187.94
2018-01-06T19:07:16.312Z,101188.72
2018-01-06T19:10:18.197Z,101179.74
2018-01-06T19:13:20.105Z,101177.78
2018-01-06T19:16:21.956Z,101185.50
2018-01-06T19:19:23.845Z,101197.81
2018-01-06T19:22:25.707Z,101195.65
2018-01-06T19:25:27.596Z,101201.18
2018-01-06T19:28:29.442Z,101206.41
2018-01-06T19:31:31.341Z,101207.53
2018-01-06T19:34:33.254Z,101209.48
2018-01-06T19:37:35.163Z,101211.14
2018-01-06T19:40:37.040Z,101213.63
2018-01-06T19:43:38.911Z,101216.46
2018-01-06T19:46:40.811Z,101217.34
2018-01-06T19:49:42.692Z,101222.81
2018-01-06T19:52:44.585Z,101230.52
2018-01-06T19:55:46.447Z,101231.40
2018-01-06T19:58:48.486Z,101234.38
2018-01-06T20:01:50.352Z,101242.82
2018-01-06T20:04:52.236Z,101247.46
2018-01-06T20:07:54.096Z,101252.15
2018-01-06T20:10:55.979Z,101252.44
2018-01-06T20:13:57.835Z,101261.48
2018-01-06T20:16:59.712Z,101266.60
2018-01-06T20:20:01.580Z,101267.09
2018-01-06T20:23:03.462Z,101276.42
2018-01-06T20:26:05.333Z,101283.25
2018-01-06T20:29:07.207Z,101282.47
2018-01-06T20:32:09.083Z,101296.13
2018-01-06T20:35:11.047Z,101292.91
2018-01-06T20:38:12.903Z,101291.59
2018-01-06T20:41:14.861Z,101292.43
2018-01-06T20:44:16.712Z,101291.59
2018-01-06T20:47:18.609Z,101296.28
2018-01-06T20:50:20.494Z,101299.01
2018-01-06T20:53:22.385Z,101298.42
2018-01-06T20:56:24.244Z,101300.67
2018-01-06T20:59:26.125Z,101303.16
2018-01-06T21:02:27.994Z,101301.63
2018-01-06T21:05:29.876Z,101307.39
2018-01-06T21:08:31.775Z,101307.97
2018-01-06T21:11:34.767Z,101314.81
2018-01-06T21:14:36.752Z,101314.81
2018-01-06T21:17:38.629Z,101316.71
2018-01-06T21:20:40.492Z,101315.11
2018-01-06T21:23:42.379Z,101332.09
2018-01-06T21:26:44.254Z,101332.39
2018-01-06T21:29:46.135Z,101339.36
2018-01-06T21:32:48.020Z,101342.88
2018-01-06T21:35:49.970Z,101337.49
2018-01-06T21:38:51.808Z,101339.11
2018-01-06T21:41:53.696Z,101338.28
2018-01-06T21:44:55.592Z,101339.40
2018-01-06T21:47:57.471Z,101345.45
2018-01-06T21:50:59.351Z,101337.87
2018-01-06T21:54:01.226Z,101338.16
2018-01-06T21:57:03.786Z,101338.99
2018-01-06T22:00:05.651Z,101340.65
2018-01-06T22:03:07.551Z,101345.87
2018-01-06T22:06:09.406Z,101354.94
2018-01-06T22:09:11.323Z,101356.31
2018-01-06T22:12:13.213Z,101364.26
2018-01-06T22:15:15.529Z,101370.30
2018-01-06T22:18:17.475Z,101380.74
2018-01-06T22:21:19.376Z,101390.30
2018-01-06T22:24:21.251Z,101390.34
2018-01-06T22:27:23.239Z,101394.19
2018-01-06T22:30:25.114Z,101400.48
2018-01-06T22:33:27.022Z,101402.26
2018-01-06T22:36:28.915Z,101408.64
2018-01-06T22:39:30.860Z,101405.66
2018-01-06T22:42:32.901Z,101406.81
2018-01-06T22:45:34.746Z,101414.23
2018-01-06T22:48:36.647Z,101413.48
2018-01-06T22:51:38.503Z,101410.78
2018-01-06T22:54:40.384Z,101420.71
2018-01-06T22:57:42.244Z,101427.82
2018-01-06T23:00:47.231Z,101428.15
2018-01-06T23:03:49.099Z,101432.28
2018-01-06T23:06:50.982Z,101438.87
2018-01-06T23:09:53.036Z,101445.77
2018-01-06T23:12:54.930Z,101441.96
2018-01-06T23:15:56.976Z,101448.87
2018-01-06T23:18:58.864Z,101446.17
2018-01-06T23:22:00.721Z,101447.87
2018-01-06T23:25:02.608Z,101447.62
2018-01-06T23:28:05.696Z,101456.10
2018-01-06T23:31:07.659Z,101448.81
2018-01-06T23:34:09.523Z,101455.39
2018-01-06T23:37:11.641Z,101458.98
2018-01-06T23:40:13.686Z,101463.10
2018-01-06T23:43:15.904Z,101469.15
2018-01-06T23:46:17.932Z,101471.63
2018-01-06T23:49:19.820Z,101471.37
2018-01-06T23:52:21.924Z,101461.06
2018-01-06T23:55:24.006Z,101456.47
2018-01-06T23:58:26.023Z,101466.27
